sensor_id;sensor_type;location;lat;lon;timestamp;pressure;altitude;pressure_sealevel;temperature
45034;BMP280;30771;47.988;-4.186;2023-05-20T06:00:49;99594.47;;;12.44
45034;BMP280;30771;47.988;-4.186;2023-05-20T06:03:15;99591.94;;;12.49
45034;BMP280;30771;47.988;-4.186;2023-05-20T06:05:43;99590.78;;;12.57
45034;BMP280;30771;47.988;-4.186;2023-05-20T06:08:08;99598.59;;;12.63
45034;BMP280;30771;47.988;-4.186;2023-05-20T06:10:34;99590.53;;;12.70
45034;BMP280;30771;47.988;-4.186;2023-05-20T06:12:59;99590.59;;;12.75
45034;BMP280;30771;47.988;-4.186;2023-05-20T06:15:25;99591.03;;;12.83
45034;BMP280;30771;47.988;-4.186;2023-05-20T06:17:50;99587.19;;;12.91
45034;BMP280;30771;47.988;-4.186;2023-05-20T06:20:15;99579.91;;;12.98
45034;BMP280;30771;47.988;-4.186;2023-05-20T06:22:40;99575.56;;;13.03
45034;BMP280;30771;47.988;-4.186;2023-05-20T06:25:06;99568.59;;;13.14
45034;BMP280;30771;47.988;-4.186;2023-05-20T06:27:31;99571.88;;;13.21
45034;BMP280;30771;47.988;-4.186;2023-05-20T06:29:57;99567.25;;;13.28
45034;BMP280;30771;47.988;-4.186;2023-05-20T06:32:22;99563.88;;;13.33
45034;BMP280;30771;47.988;-4.186;2023-05-20T06:34:47;99561.22;;;13.33
45034;BMP280;30771;47.988;-4.186;2023-05-20T06:37:13;99553.84;;;13.35
45034;BMP280;30771;47.988;-4.186;2023-05-20T06:39:38;99550.50;;;13.39
45034;BMP280;30771;47.988;-4.186;2023-05-20T06:42:05;99559.28;;;13.45
45034;BMP280;30771;47.988;-4.186;2023-05-20T06:44:30;99556.19;;;13.48
45034;BMP280;30771;47.988;-4.186;2023-05-20T06:46:55;99549.34;;;13.52
45034;BMP280;30771;47.988;-4.186;2023-05-20T06:49:20;99545.75;;;13.58
45034;BMP280;30771;47.988;-4.186;2023-05-20T06:51:46;99557.69;;;13.60
45034;BMP280;30771;47.988;-4.186;2023-05-20T06:54:12;99549.81;;;13.65
45034;BMP280;30771;47.988;-4.186;2023-05-20T06:56:37;99555.25;;;13.75
45034;BMP280;30771;47.988;-4.186;2023-05-20T06:59:02;99544.09;;;13.90
45034;BMP280;30771;47.988;-4.186;2023-05-20T07:01:27;99541.00;;;13.98
45034;BMP280;30771;47.988;-4.186;2023-05-20T07:03:53;99545.63;;;14.07
45034;BMP280;30771;47.988;-4.186;2023-05-20T07:06:18;99558.44;;;14.15
45034;BMP280;30771;47.988;-4.186;2023-05-20T07:08:43;99561.50;;;14.29
45034;BMP280;30771;47.988;-4.186;2023-05-20T07:11:09;99575.66;;;14.39
45034;BMP280;30771;47.988;-4.186;2023-05-20T07:13:34;99590.31;;;14.47
45034;BMP280;30771;47.988;-4.186;2023-05-20T07:15:59;99622.44;;;14.51
45034;BMP280;30771;47.988;-4.186;2023-05-20T07:18:25;99656.91;;;14.56
45034;BMP280;30771;47.988;-4.186;2023-05-20T07:20:50;99739.09;;;14.61
45034;BMP280;30771;47.988;-4.186;2023-05-20T07:23:16;99755.13;;;14.71
45034;BMP280;30771;47.988;-4.186;2023-05-20T07:25:41;99768.50;;;14.81
45034;BMP280;30771;47.988;-4.186;2023-05-20T07:28:07;99814.00;;;14.94
45034;BMP280;30771;47.988;-4.186;2023-05-20T07:30:32;99853.38;;;15.02
45034;BMP280;30771;47.988;-4.186;2023-05-20T07:32:57;99976.44;;;15.06
45034;BMP280;30771;47.988;-4.186;2023-05-20T07:35:22;100043.31;;;15.08
45034;BMP280;30771;47.988;-4.186;2023-05-20T07:37:48;100074.72;;;15.16
45034;BMP280;30771;47.988;-4.186;2023-05-20T07:40:14;100106.47;;;15.28
45034;BMP280;30771;47.988;-4.186;2023-05-20T07:42:39;100174.75;;;15.32
45034;BMP280;30771;47.988;-4.186;2023-05-20T07:45:05;100185.03;;;15.45
45034;BMP280;30771;47.988;-4.186;2023-05-20T07:47:30;100249.13;;;15.54
45034;BMP280;30771;47.988;-4.186;2023-05-20T07:49:56;100275.75;;;15.59
45034;BMP280;30771;47.988;-4.186;2023-05-20T07:52:22;100291.63;;;15.71
45034;BMP280;30771;47.988;-4.186;2023-05-20T07:54:47;100284.97;;;15.85
45034;BMP280;30771;47.988;-4.186;2023-05-20T07:57:12;100279.72;;;16.06
45034;BMP280;30771;47.988;-4.186;2023-05-20T07:59:37;100298.06;;;16.24
45034;BMP280;30771;47.988;-4.186;2023-05-20T08:02:03;100305.72;;;16.37
45034;BMP280;30771;47.988;-4.186;2023-05-20T08:04:28;100314.38;;;16.49
45034;BMP280;30771;47.988;-4.186;2023-05-20T08:06:54;100321.44;;;16.60
45034;BMP280;30771;47.988;-4.186;2023-05-20T08:09:19;100329.47;;;16.82
45034;BMP280;30771;47.988;-4.186;2023-05-20T08:11:45;100353.44;;;16.87
45034;BMP280;30771;47.988;-4.186;2023-05-20T08:14:11;100350.41;;;17.00
45034;BMP280;30771;47.988;-4.186;2023-05-20T08:16:36;100365.09;;;17.03
45034;BMP280;30771;47.988;-4.186;2023-05-20T08:19:01;100400.16;;;17.00
45034;BMP280;30771;47.988;-4.186;2023-05-20T08:21:27;100367.06;;;17.12
45034;BMP280;30771;47.988;-4.186;2023-05-20T08:23:52;100366.75;;;17.30
45034;BMP280;30771;47.988;-4.186;2023-05-20T08:26:17;100484.09;;;17.29
45034;BMP280;30771;47.988;-4.186;2023-05-20T08:28:43;100593.66;;;17.21
45034;BMP280;30771;47.988;-4.186;2023-05-20T08:31:08;100637.91;;;17.10
45034;BMP280;30771;47.988;-4.186;2023-05-20T08:33:34;100647.63;;;17.16
45034;BMP280;30771;47.988;-4.186;2023-05-20T08:36:00;100729.69;;;17.08
45034;BMP280;30771;47.988;-4.186;2023-05-20T08:38:25;100739.31;;;17.09
45034;BMP280;30771;47.988;-4.186;2023-05-20T08:40:54;100746.19;;;17.10
45034;BMP280;30771;47.988;-4.186;2023-05-20T08:43:20;100741.63;;;17.22
45034;BMP280;30771;47.988;-4.186;2023-05-20T08:45:46;100749.09;;;17.36
45034;BMP280;30771;47.988;-4.186;2023-05-20T08:48:11;100766.78;;;17.42
45034;BMP280;30771;47.988;-4.186;2023-05-20T08:50:37;100756.44;;;17.62
45034;BMP280;30771;47.988;-4.186;2023-05-20T08:53:02;100828.84;;;17.59
45034;BMP280;30771;47.988;-4.186;2023-05-20T08:58:14;100923.16;;;17.75
45034;BMP280;30771;47.988;-4.186;2023-05-20T09:00:39;100976.84;;;17.83
45034;BMP280;30771;47.988;-4.186;2023-05-20T09:03:11;101016.31;;;17.98
45034;BMP280;30771;47.988;-4.186;2023-05-20T09:05:40;101030.84;;;18.18
45034;BMP280;30771;47.988;-4.186;2023-05-20T09:08:06;101050.72;;;18.27
45034;BMP280;30771;47.988;-4.186;2023-05-20T09:10:31;101078.94;;;18.40
45034;BMP280;30771;47.988;-4.186;2023-05-20T09:12:58;101098.09;;;18.54
45034;BMP280;30771;47.988;-4.186;2023-05-20T09:15:23;101099.91;;;18.65
45034;BMP280;30771;47.988;-4.186;2023-05-20T09:17:49;101123.75;;;18.55
45034;BMP280;30771;47.988;-4.186;2023-05-20T09:20:14;101145.91;;;18.44
45034;BMP280;30771;47.988;-4.186;2023-05-20T09:22:40;101162.34;;;18.36
45034;BMP280;30771;47.988;-4.186;2023-05-20T09:25:05;101172.66;;;18.32
45034;BMP280;30771;47.988;-4.186;2023-05-20T09:27:31;101154.34;;;18.36
45034;BMP280;30771;47.988;-4.186;2023-05-20T09:29:57;101143.16;;;18.50
45034;BMP280;30771;47.988;-4.186;2023-05-20T09:32:22;101153.09;;;18.55
45034;BMP280;30771;47.988;-4.186;2023-05-20T09:34:50;101162.97;;;18.43
45034;BMP280;30771;47.988;-4.186;2023-05-20T09:37:17;101161.44;;;18.58
45034;BMP280;30771;47.988;-4.186;2023-05-20T09:40:04;101153.44;;;18.58
45034;BMP280;30771;47.988;-4.186;2023-05-20T09:42:40;101142.03;;;18.63
45034;BMP280;30771;47.988;-4.186;2023-05-20T09:45:06;101136.47;;;18.81
45034;BMP280;30771;47.988;-4.186;2023-05-20T09:47:33;101134.50;;;18.93
45034;BMP280;30771;47.988;-4.186;2023-05-20T09:49:59;101125.31;;;19.00
45034;BMP280;30771;47.988;-4.186;2023-05-20T09:52:25;101118.53;;;19.09
45034;BMP280;30771;47.988;-4.186;2023-05-20T09:54:52;101136.09;;;19.05
45034;BMP280;30771;47.988;-4.186;2023-05-20T09:57:17;101127.19;;;19.00
45034;BMP280;30771;47.988;-4.186;2023-05-20T09:59:43;101128.34;;;18.87
45034;BMP280;30771;47.988;-4.186;2023-05-20T10:02:09;101118.59;;;18.81
45034;BMP280;30771;47.988;-4.186;2023-05-20T10:04:36;101101.28;;;19.00
45034;BMP280;30771;47.988;-4.186;2023-05-20T10:09:42;101111.06;;;19.49
45034;BMP280;30771;47.988;-4.186;2023-05-20T10:17:11;101101.63;;;19.63
45034;BMP280;30771;47.988;-4.186;2023-05-20T10:19:37;101097.34;;;19.41
45034;BMP280;30771;47.988;-4.186;2023-05-20T10:22:03;101090.56;;;19.33
45034;BMP280;30771;47.988;-4.186;2023-05-20T10:24:30;101095.13;;;19.16
45034;BMP280;30771;47.988;-4.186;2023-05-20T10:26:56;101068.47;;;19.00
45034;BMP280;30771;47.988;-4.186;2023-05-20T10:29:22;101045.72;;;18.97
45034;BMP280;30771;47.988;-4.186;2023-05-20T10:31:48;101018.66;;;19.10
45034;BMP280;30771;47.988;-4.186;2023-05-20T10:34:16;101017.25;;;19.24
45034;BMP280;30771;47.988;-4.186;2023-05-20T10:36:45;101010.34;;;19.07
45034;BMP280;30771;47.988;-4.186;2023-05-20T10:39:14;100988.91;;;19.18
45034;BMP280;30771;47.988;-4.186;2023-05-20T10:41:41;100990.50;;;19.41
45034;BMP280;30771;47.988;-4.186;2023-05-20T10:44:06;101004.56;;;19.53
45034;BMP280;30771;47.988;-4.186;2023-05-20T10:46:32;101012.78;;;19.51
45034;BMP280;30771;47.988;-4.186;2023-05-20T10:48:57;100995.28;;;19.60
45034;BMP280;30771;47.988;-4.186;2023-05-20T10:51:23;100974.72;;;19.88
45034;BMP280;30771;47.988;-4.186;2023-05-20T10:53:51;100998.88;;;19.98
45034;BMP280;30771;47.988;-4.186;2023-05-20T10:56:17;101008.66;;;19.87
45034;BMP280;30771;47.988;-4.186;2023-05-20T10:58:43;100981.75;;;19.99
45034;BMP280;30771;47.988;-4.186;2023-05-20T11:01:08;100977.63;;;20.18
45034;BMP280;30771;47.988;-4.186;2023-05-20T11:03:34;100979.56;;;20.17
45034;BMP280;30771;47.988;-4.186;2023-05-20T11:06:00;100987.47;;;20.07
45034;BMP280;30771;47.988;-4.186;2023-05-20T11:08:27;100980.13;;;20.24
45034;BMP280;30771;47.988;-4.186;2023-05-20T11:10:57;100988.06;;;20.46
45034;BMP280;30771;47.988;-4.186;2023-05-20T11:13:23;101023.38;;;20.16
45034;BMP280;30771;47.988;-4.186;2023-05-20T11:15:49;101037.84;;;19.93
45034;BMP280;30771;47.988;-4.186;2023-05-20T11:18:14;101046.31;;;19.85
45034;BMP280;30771;47.988;-4.186;2023-05-20T11:20:39;101041.72;;;19.81
45034;BMP280;30771;47.988;-4.186;2023-05-20T11:23:05;101015.56;;;19.83
45034;BMP280;30771;47.988;-4.186;2023-05-20T11:25:31;100996.59;;;19.84
45034;BMP280;30771;47.988;-4.186;2023-05-20T11:27:58;100995.00;;;19.83
45034;BMP280;30771;47.988;-4.186;2023-05-20T11:30:23;100997.53;;;19.95
45034;BMP280;30771;47.988;-4.186;2023-05-20T11:32:55;101006.63;;;19.99
45034;BMP280;30771;47.988;-4.186;2023-05-20T11:35:21;101002.38;;;20.03
45034;BMP280;30771;47.988;-4.186;2023-05-20T11:37:52;101000.59;;;20.14
45034;BMP280;30771;47.988;-4.186;2023-05-20T11:40:18;101004.38;;;20.18
45034;BMP280;30771;47.988;-4.186;2023-05-20T11:42:47;100999.59;;;20.20
45034;BMP280;30771;47.988;-4.186;2023-05-20T11:45:12;100991.16;;;20.33
45034;BMP280;30771;47.988;-4.186;2023-05-20T11:47:38;100975.25;;;20.53
45034;BMP280;30771;47.988;-4.186;2023-05-20T11:50:03;100981.75;;;20.67
45034;BMP280;30771;47.988;-4.186;2023-05-20T11:52:29;100974.06;;;20.80
45034;BMP280;30771;47.988;-4.186;2023-05-20T11:54:57;100980.84;;;20.93
45034;BMP280;30771;47.988;-4.186;2023-05-20T11:57:22;100983.78;;;20.91
45034;BMP280;30771;47.988;-4.186;2023-05-20T11:59:47;100987.41;;;20.75
45034;BMP280;30771;47.988;-4.186;2023-05-20T12:02:13;100991.09;;;20.64
45034;BMP280;30771;47.988;-4.186;2023-05-20T12:04:38;100984.66;;;20.60
45034;BMP280;30771;47.988;-4.186;2023-05-20T12:07:04;100990.09;;;20.70
45034;BMP280;30771;47.988;-4.186;2023-05-20T12:09:33;100979.59;;;20.59
45034;BMP280;30771;47.988;-4.186;2023-05-20T12:11:59;100979.56;;;20.64
45034;BMP280;30771;47.988;-4.186;2023-05-20T12:14:24;100983.59;;;20.61
45034;BMP280;30771;47.988;-4.186;2023-05-20T12:16:49;100971.06;;;20.67
45034;BMP280;30771;47.988;-4.186;2023-05-20T12:19:14;100971.66;;;20.79
45034;BMP280;30771;47.988;-4.186;2023-05-20T12:21:40;100975.97;;;20.85
45034;BMP280;30771;47.988;-4.186;2023-05-20T12:24:05;100966.34;;;20.89
45034;BMP280;30771;47.988;-4.186;2023-05-20T12:26:32;100960.78;;;21.05
45034;BMP280;30771;47.988;-4.186;2023-05-20T12:28:59;100974.94;;;20.96
45034;BMP280;30771;47.988;-4.186;2023-05-20T12:31:24;100986.16;;;20.83
45034;BMP280;30771;47.988;-4.186;2023-05-20T12:33:49;100961.28;;;20.92
45034;BMP280;30771;47.988;-4.186;2023-05-20T12:36:15;100965.38;;;21.20
45034;BMP280;30771;47.988;-4.186;2023-05-20T12:38:40;100951.00;;;21.36
45034;BMP280;30771;47.988;-4.186;2023-05-20T12:41:05;100956.63;;;21.44
45034;BMP280;30771;47.988;-4.186;2023-05-20T12:43:31;100951.84;;;21.51
45034;BMP280;30771;47.988;-4.186;2023-05-20T12:45:56;100949.94;;;21.52
45034;BMP280;30771;47.988;-4.186;2023-05-20T12:48:21;100964.09;;;21.32
45034;BMP280;30771;47.988;-4.186;2023-05-20T12:50:46;100980.13;;;21.07
45034;BMP280;30771;47.988;-4.186;2023-05-20T12:53:12;100967.25;;;21.09
45034;BMP280;30771;47.988;-4.186;2023-05-20T12:55:37;100955.81;;;21.34
45034;BMP280;30771;47.988;-4.186;2023-05-20T12:58:03;100946.22;;;21.63
45034;BMP280;30771;47.988;-4.186;2023-05-20T13:00:28;100938.16;;;21.53
45034;BMP280;30771;47.988;-4.186;2023-05-20T13:02:54;100941.66;;;21.48
45034;BMP280;30771;47.988;-4.186;2023-05-20T13:05:19;100953.97;;;21.34
45034;BMP280;30771;47.988;-4.186;2023-05-20T13:07:44;100950.69;;;21.22
45034;BMP280;30771;47.988;-4.186;2023-05-20T13:10:10;100948.03;;;21.37
45034;BMP280;30771;47.988;-4.186;2023-05-20T13:12:35;100940.03;;;21.52
45034;BMP280;30771;47.988;-4.186;2023-05-20T13:15:01;100953.97;;;21.34
45034;BMP280;30771;47.988;-4.186;2023-05-20T13:17:26;100939.16;;;21.17
45034;BMP280;30771;47.988;-4.186;2023-05-20T13:19:52;100927.66;;;21.21
45034;BMP280;30771;47.988;-4.186;2023-05-20T13:22:17;100924.44;;;21.24
45034;BMP280;30771;47.988;-4.186;2023-05-20T13:24:43;100912.97;;;21.49
45034;BMP280;30771;47.988;-4.186;2023-05-20T13:27:08;100923.69;;;21.69
45034;BMP280;30771;47.988;-4.186;2023-05-20T13:29:34;100932.81;;;21.68
45034;BMP280;30771;47.988;-4.186;2023-05-20T13:31:59;100946.75;;;21.60
45034;BMP280;30771;47.988;-4.186;2023-05-20T13:34:24;100930.13;;;21.53
45034;BMP280;30771;47.988;-4.186;2023-05-20T13:36:49;100936.81;;;21.35
45034;BMP280;30771;47.988;-4.186;2023-05-20T13:39:15;100946.91;;;21.13
45034;BMP280;30771;47.988;-4.186;2023-05-20T13:41:40;100939.38;;;21.05
45034;BMP280;30771;47.988;-4.186;2023-05-20T13:44:05;100926.59;;;21.37
45034;BMP280;30771;47.988;-4.186;2023-05-20T13:46:31;100910.31;;;21.74
45034;BMP280;30771;47.988;-4.186;2023-05-20T13:48:56;100895.22;;;22.13
45034;BMP280;30771;47.988;-4.186;2023-05-20T13:51:21;100906.47;;;22.25
45034;BMP280;30771;47.988;-4.186;2023-05-20T13:53:46;100911.34;;;22.23
45034;BMP280;30771;47.988;-4.186;2023-05-20T13:56:12;100902.19;;;22.29
45034;BMP280;30771;47.988;-4.186;2023-05-20T13:58:37;100904.34;;;22.32
45034;BMP280;30771;47.988;-4.186;2023-05-20T14:01:02;100883.38;;;22.44
45034;BMP280;30771;47.988;-4.186;2023-05-20T14:03:29;100875.50;;;22.68
45034;BMP280;30771;47.988;-4.186;2023-05-20T14:05:54;100891.03;;;22.81
45034;BMP280;30771;47.988;-4.186;2023-05-20T14:08:19;100917.44;;;22.49
45034;BMP280;30771;47.988;-4.186;2023-05-20T14:10:45;100918.81;;;22.36
45034;BMP280;30771;47.988;-4.186;2023-05-20T14:13:10;100921.53;;;22.21
45034;BMP280;30771;47.988;-4.186;2023-05-20T14:15:36;100901.41;;;22.24
45034;BMP280;30771;47.988;-4.186;2023-05-20T14:18:01;100904.09;;;22.14
45034;BMP280;30771;47.988;-4.186;2023-05-20T14:20:26;100920.22;;;22.04
45034;BMP280;30771;47.988;-4.186;2023-05-20T14:22:51;100937.41;;;21.88
45034;BMP280;30771;47.988;-4.186;2023-05-20T14:25:17;100924.53;;;22.05
45034;BMP280;30771;47.988;-4.186;2023-05-20T14:27:42;100905.44;;;22.31
45034;BMP280;30771;47.988;-4.186;2023-05-20T14:30:07;100904.31;;;22.47
45034;BMP280;30771;47.988;-4.186;2023-05-20T14:32:33;100908.88;;;22.47
45034;BMP280;30771;47.988;-4.186;2023-05-20T14:34:58;100913.16;;;22.33
45034;BMP280;30771;47.988;-4.186;2023-05-20T14:37:24;100915.38;;;22.21
45034;BMP280;30771;47.988;-4.186;2023-05-20T14:39:51;100918.84;;;22.26
45034;BMP280;30771;47.988;-4.186;2023-05-20T14:42:16;100903.47;;;22.52
45034;BMP280;30771;47.988;-4.186;2023-05-20T14:44:41;100894.78;;;22.75
45034;BMP280;30771;47.988;-4.186;2023-05-20T14:47:07;100899.69;;;22.58
45034;BMP280;30771;47.988;-4.186;2023-05-20T14:49:32;100908.94;;;22.17
45034;BMP280;30771;47.988;-4.186;2023-05-20T14:51:57;100909.50;;;21.94
45034;BMP280;30771;47.988;-4.186;2023-05-20T14:54:22;100899.03;;;22.02
45034;BMP280;30771;47.988;-4.186;2023-05-20T14:56:49;100906.81;;;21.89
45034;BMP280;30771;47.988;-4.186;2023-05-20T14:59:15;100919.69;;;21.56
45034;BMP280;30771;47.988;-4.186;2023-05-20T15:01:40;100918.59;;;21.42
45034;BMP280;30771;47.988;-4.186;2023-05-20T15:04:05;100897.16;;;21.52
45034;BMP280;30771;47.988;-4.186;2023-05-20T15:06:31;100896.91;;;21.74
45034;BMP280;30771;47.988;-4.186;2023-05-20T15:08:58;100899.56;;;21.89
45034;BMP280;30771;47.988;-4.186;2023-05-20T15:11:24;100895.56;;;21.77
45034;BMP280;30771;47.988;-4.186;2023-05-20T15:13:49;100904.13;;;21.43
45034;BMP280;30771;47.988;-4.186;2023-05-20T15:16:15;100901.13;;;21.15
45034;BMP280;30771;47.988;-4.186;2023-05-20T15:18:43;100899.25;;;21.15
45034;BMP280;30771;47.988;-4.186;2023-05-20T15:21:08;100897.94;;;21.33
45034;BMP280;30771;47.988;-4.186;2023-05-20T15:23:33;100883.22;;;21.55
45034;BMP280;30771;47.988;-4.186;2023-05-20T15:25:58;100894.97;;;21.44
45034;BMP280;30771;47.988;-4.186;2023-05-20T15:28:24;100911.81;;;21.10
45034;BMP280;30771;47.988;-4.186;2023-05-20T15:30:53;100900.53;;;21.03
45034;BMP280;30771;47.988;-4.186;2023-05-20T15:33:19;100885.31;;;21.28
45034;BMP280;30771;47.988;-4.186;2023-05-20T15:35:44;100891.19;;;21.20
45034;BMP280;30771;47.988;-4.186;2023-05-20T15:38:10;100886.63;;;21.16
45034;BMP280;30771;47.988;-4.186;2023-05-20T15:40:35;100873.28;;;21.31
45034;BMP280;30771;47.988;-4.186;2023-05-20T15:43:01;100867.94;;;21.31
45034;BMP280;30771;47.988;-4.186;2023-05-20T15:45:26;100849.97;;;21.36
45034;BMP280;30771;47.988;-4.186;2023-05-20T15:47:51;100851.31;;;21.44
45034;BMP280;30771;47.988;-4.186;2023-05-20T15:50:17;100864.97;;;21.32
45034;BMP280;30771;47.988;-4.186;2023-05-20T15:52:42;100872.50;;;21.35
45034;BMP280;30771;47.988;-4.186;2023-05-20T15:55:08;100874.63;;;21.48
45034;BMP280;30771;47.988;-4.186;2023-05-20T15:57:33;100864.44;;;21.55
45034;BMP280;30771;47.988;-4.186;2023-05-20T15:59:58;100851.31;;;21.64
45034;BMP280;30771;47.988;-4.186;2023-05-20T16:02:24;100877.56;;;21.42
45034;BMP280;30771;47.988;-4.186;2023-05-20T16:04:49;100890.31;;;20.90
45034;BMP280;30771;47.988;-4.186;2023-05-20T16:07:14;100903.00;;;20.53
45034;BMP280;30771;47.988;-4.186;2023-05-20T16:09:40;100884.81;;;20.60
45034;BMP280;30771;47.988;-4.186;2023-05-20T16:12:05;100888.44;;;20.85
45034;BMP280;30771;47.988;-4.186;2023-05-20T16:14:30;100866.50;;;20.98
45034;BMP280;30771;47.988;-4.186;2023-05-20T16:16:56;100883.41;;;20.99
45034;BMP280;30771;47.988;-4.186;2023-05-20T16:19:21;100884.38;;;20.78
45034;BMP280;30771;47.988;-4.186;2023-05-20T16:21:46;100892.22;;;20.94
45034;BMP280;30771;47.988;-4.186;2023-05-20T16:24:12;100890.91;;;21.02
45034;BMP280;30771;47.988;-4.186;2023-05-20T16:26:37;100896.66;;;20.74
45034;BMP280;30771;47.988;-4.186;2023-05-20T16:29:02;100887.50;;;20.60
45034;BMP280;30771;47.988;-4.186;2023-05-20T16:31:28;100886.00;;;20.84
45034;BMP280;30771;47.988;-4.186;2023-05-20T16:33:53;100883.97;;;21.11
45034;BMP280;30771;47.988;-4.186;2023-05-20T16:36:18;100895.44;;;21.01
45034;BMP280;30771;47.988;-4.186;2023-05-20T16:38:45;100893.69;;;20.65
45034;BMP280;30771;47.988;-4.186;2023-05-20T16:41:10;100885.00;;;20.38
45034;BMP280;30771;47.988;-4.186;2023-05-20T16:43:36;100869.50;;;20.45
45034;BMP280;30771;47.988;-4.186;2023-05-20T16:46:01;100846.38;;;20.76
45034;BMP280;30771;47.988;-4.186;2023-05-20T16:48:26;100848.81;;;20.87
45034;BMP280;30771;47.988;-4.186;2023-05-20T16:50:52;100851.75;;;20.86
45034;BMP280;30771;47.988;-4.186;2023-05-20T16:53:17;100859.22;;;20.84
45034;BMP280;30771;47.988;-4.186;2023-05-20T16:55:42;100849.03;;;20.76
45034;BMP280;30771;47.988;-4.186;2023-05-20T16:58:07;100833.84;;;20.91
45034;BMP280;30771;47.988;-4.186;2023-05-20T17:00:33;100824.50;;;21.09
45034;BMP280;30771;47.988;-4.186;2023-05-20T17:02:58;100847.00;;;21.18
45034;BMP280;30771;47.988;-4.186;2023-05-20T17:05:23;100845.59;;;21.00
45034;BMP280;30771;47.988;-4.186;2023-05-20T17:07:49;100844.47;;;20.76
45034;BMP280;30771;47.988;-4.186;2023-05-20T17:10:15;100839.69;;;20.83
45034;BMP280;30771;47.988;-4.186;2023-05-20T17:12:40;100837.81;;;20.89
45034;BMP280;30771;47.988;-4.186;2023-05-20T17:15:05;100846.06;;;20.72
45034;BMP280;30771;47.988;-4.186;2023-05-20T17:17:31;100861.22;;;20.52
45034;BMP280;30771;47.988;-4.186;2023-05-20T17:19:56;100854.56;;;20.59
45034;BMP280;30771;47.988;-4.186;2023-05-20T17:22:21;100861.09;;;20.27
45034;BMP280;30771;47.988;-4.186;2023-05-20T17:24:46;100852.09;;;20.43
45034;BMP280;30771;47.988;-4.186;2023-05-20T17:27:12;100843.91;;;20.69
45034;BMP280;30771;47.988;-4.186;2023-05-20T17:29:37;100844.00;;;20.89
45034;BMP280;30771;47.988;-4.186;2023-05-20T17:32:02;100856.88;;;20.97
45034;BMP280;30771;47.988;-4.186;2023-05-20T17:34:28;100868.84;;;20.80
45034;BMP280;30771;47.988;-4.186;2023-05-20T17:36:53;100879.09;;;20.36
45034;BMP280;30771;47.988;-4.186;2023-05-20T17:39:19;100874.34;;;20.07
45034;BMP280;30771;47.988;-4.186;2023-05-20T17:41:44;100861.84;;;20.22
45034;BMP280;30771;47.988;-4.186;2023-05-20T17:44:10;100854.41;;;20.76
45034;BMP280;30771;47.988;-4.186;2023-05-20T17:46:35;100863.03;;;21.03
45034;BMP280;30771;47.988;-4.186;2023-05-20T17:49:00;100859.34;;;21.24
45034;BMP280;30771;47.988;-4.186;2023-05-20T17:51:25;100877.34;;;21.68
45034;BMP280;30771;47.988;-4.186;2023-05-20T17:53:50;100859.31;;;22.83
45034;BMP280;30771;47.988;-4.186;2023-05-20T17:56:16;100861.53;;;23.48
45034;BMP280;30771;47.988;-4.186;2023-05-20T17:58:41;100864.22;;;24.05
45034;BMP280;30771;47.988;-4.186;2023-05-20T18:01:08;100853.97;;;25.05
45034;BMP280;30771;47.988;-4.186;2023-05-20T18:03:34;100852.03;;;25.96
45034;BMP280;30771;47.988;-4.186;2023-05-20T18:05:59;100877.63;;;26.39
45034;BMP280;30771;47.988;-4.186;2023-05-20T18:08:25;100877.31;;;26.54
45034;BMP280;30771;47.988;-4.186;2023-05-20T18:10:50;100883.63;;;26.50
45034;BMP280;30771;47.988;-4.186;2023-05-20T18:13:16;100883.03;;;26.39
45034;BMP280;30771;47.988;-4.186;2023-05-20T18:15:41;100887.44;;;26.22
45034;BMP280;30771;47.988;-4.186;2023-05-20T18:18:06;100903.88;;;26.12
45034;BMP280;30771;47.988;-4.186;2023-05-20T18:20:32;100901.31;;;25.75
45034;BMP280;30771;47.988;-4.186;2023-05-20T18:22:57;100893.97;;;26.07
45034;BMP280;30771;47.988;-4.186;2023-05-20T18:25:23;100878.25;;;26.72
45034;BMP280;30771;47.988;-4.186;2023-05-20T18:27:48;100893.88;;;26.97
45034;BMP280;30771;47.988;-4.186;2023-05-20T18:30:13;100896.88;;;26.96
45034;BMP280;30771;47.988;-4.186;2023-05-20T18:32:39;100902.78;;;26.76
45034;BMP280;30771;47.988;-4.186;2023-05-20T18:35:04;100909.50;;;26.51
45034;BMP280;30771;47.988;-4.186;2023-05-20T18:37:30;100906.50;;;26.66
45034;BMP280;30771;47.988;-4.186;2023-05-20T18:39:55;100907.34;;;26.39
45034;BMP280;30771;47.988;-4.186;2023-05-20T18:42:22;100911.44;;;26.23
45034;BMP280;30771;47.988;-4.186;2023-05-20T18:44:47;100923.34;;;26.22
45034;BMP280;30771;47.988;-4.186;2023-05-20T18:47:13;100923.34;;;26.09
45034;BMP280;30771;47.988;-4.186;2023-05-20T18:49:38;100924.38;;;25.67
45034;BMP280;30771;47.988;-4.186;2023-05-20T18:52:03;100933.72;;;25.43
45034;BMP280;30771;47.988;-4.186;2023-05-20T18:54:29;100935.41;;;25.20
45034;BMP280;30771;47.988;-4.186;2023-05-20T18:56:54;100950.34;;;24.76
45034;BMP280;30771;47.988;-4.186;2023-05-20T18:59:20;100950.13;;;24.25
45034;BMP280;30771;47.988;-4.186;2023-05-20T19:01:45;100945.13;;;23.85
45034;BMP280;30771;47.988;-4.186;2023-05-20T19:04:10;100948.84;;;23.55
45034;BMP280;30771;47.988;-4.186;2023-05-20T19:06:36;100961.09;;;22.84
45034;BMP280;30771;47.988;-4.186;2023-05-20T19:09:01;100976.97;;;21.30
45034;BMP280;30771;47.988;-4.186;2023-05-20T19:11:27;100974.69;;;20.14
45034;BMP280;30771;47.988;-4.186;2023-05-20T19:13:53;100956.28;;;19.38
45034;BMP280;30771;47.988;-4.186;2023-05-20T19:16:18;100939.59;;;18.88
45034;BMP280;30771;47.988;-4.186;2023-05-20T19:18:43;100915.84;;;18.48
45034;BMP280;30771;47.988;-4.186;2023-05-20T19:21:09;100887.59;;;18.14
45034;BMP280;30771;47.988;-4.186;2023-05-20T19:23:34;100865.28;;;17.87
45034;BMP280;30771;47.988;-4.186;2023-05-20T19:25:59;100839.00;;;17.62
45034;BMP280;30771;47.988;-4.186;2023-05-20T19:28:25;100797.91;;;17.42
45034;BMP280;30771;47.988;-4.186;2023-05-20T19:30:50;100769.16;;;17.27
45034;BMP280;30771;47.988;-4.186;2023-05-20T19:33:15;100728.97;;;17.12
45034;BMP280;30771;47.988;-4.186;2023-05-20T19:35:41;100698.72;;;17.02
45034;BMP280;30771;47.988;-4.186;2023-05-20T19:38:06;100662.81;;;16.87
45034;BMP280;30771;47.988;-4.186;2023-05-20T19:40:31;100618.91;;;16.73
45034;BMP280;30771;47.988;-4.186;2023-05-20T19:42:56;100550.31;;;16.59
45034;BMP280;30771;47.988;-4.186;2023-05-20T19:45:22;100503.84;;;16.45
45034;BMP280;30771;47.988;-4.186;2023-05-20T19:47:48;100442.75;;;16.33